Time;durP1;ratioP1;P1;durP2;ratioP2;P2;SDS_P1;SDS_P2;PMS_P1;PMS_P2;Temp;Humidity;BMP_temperature;BMP_pressure;BME280_temperature;BME280_humidity;BME280_pressure;Samples;Min_cycle;Max_cycle;Signal;HPM_P1;HPM_P2
2022/03/20 00:00:38;;;;;;;8.35;4.75;;;;;;;;;;5014973;28;93201;-73
2022/03/20 00:03:07;;;;;;;5.47;4.07;;;;;;;;;;5014774;28;93231;-74
2022/03/20 00:05:40;;;;;;;4.05;3.70;;;;;;;;;;5012518;28;95352;-73
2022/03/20 00:08:10;;;;;;;4.85;3.55;;;;;;;;;;5014110;28;95205;-73
2022/03/20 00:10:37;;;;;;;6.20;3.70;;;;;;;;;;5014359;28;94103;-74
2022/03/20 00:13:08;;;;;;;5.22;3.83;;;;;;;;;;5014312;28;92414;-73
2022/03/20 00:15:34;;;;;;;3.92;3.35;;;;;;;;;;5006845;28;93899;-73
2022/03/20 00:18:01;;;;;;;9.20;4.63;;;;;;;;;;5015180;28;92574;-73
2022/03/20 00:20:28;;;;;;;6.15;4.38;;;;;;;;;;5014592;28;94599;-73
2022/03/20 00:22:56;;;;;;;5.50;4.20;;;;;;;;;;5015671;28;92869;-74
2022/03/20 00:25:23;;;;;;;8.35;5.00;;;;;;;;;;5013840;28;92538;-73
2022/03/20 00:27:49;;;;;;;7.43;5.30;;;;;;;;;;5014751;28;93287;-73
2022/03/20 00:30:16;;;;;;;11.75;4.85;;;;;;;;;;5012477;28;96210;-73
2022/03/20 00:32:42;;;;;;;6.75;4.75;;;;;;;;;;5015135;28;92458;-73
2022/03/20 00:35:09;;;;;;;8.05;4.95;;;;;;;;;;5015574;28;93483;-73
2022/03/20 00:37:35;;;;;;;6.78;5.15;;;;;;;;;;5014985;28;92523;-73
2022/03/20 00:40:02;;;;;;;8.60;5.50;;;;;;;;;;5014505;28;93137;-73
2022/03/20 00:42:28;;;;;;;5.43;4.93;;;;;;;;;;5013180;28;93338;-73
2022/03/20 00:44:55;;;;;;;5.65;5.18;;;;;;;;;;5012674;28;93503;-73
2022/03/20 00:47:21;;;;;;;5.68;5.18;;;;;;;;;;5014556;28;95438;-73
2022/03/20 00:49:49;;;;;;;9.30;5.88;;;;;;;;;;5012708;28;93880;-73
2022/03/20 00:52:15;;;;;;;10.00;6.35;;;;;;;;;;5014839;28;92520;-74
2022/03/20 00:54:41;;;;;;;7.68;6.43;;;;;;;;;;5013736;28;94981;-73
2022/03/20 00:57:08;;;;;;;6.18;5.68;;;;;;;;;;5017997;28;92419;-73
2022/03/20 00:59:34;;;;;;;7.07;6.35;;;;;;;;;;5013784;28;93843;-73
2022/03/20 01:02:01;;;;;;;7.88;6.90;;;;;;;;;;5014885;28;93379;-73
2022/03/20 01:04:27;;;;;;;9.48;6.72;;;;;;;;;;5013138;28;92521;-73
2022/03/20 01:06:57;;;;;;;6.88;6.18;;;;;;;;;;5011949;28;96262;-73
2022/03/20 01:09:23;;;;;;;8.38;7.05;;;;;;;;;;5011734;28;93475;-73
2022/03/20 01:11:50;;;;;;;6.97;6.35;;;;;;;;;;5014639;28;91722;-73
2022/03/20 01:14:17;;;;;;;12.77;7.32;;;;;;;;;;5014016;28;92494;-73
2022/03/20 01:16:43;;;;;;;8.07;7.28;;;;;;;;;;5013180;28;94990;-73
2022/03/20 01:19:09;;;;;;;11.35;7.70;;;;;;;;;;5014448;28;95337;-73
2022/03/20 01:21:36;;;;;;;8.13;5.85;;;;;;;;;;5011297;28;94254;-73
2022/03/20 01:24:03;;;;;;;7.60;6.00;;;;;;;;;;5012054;28;93047;-73
2022/03/20 01:26:29;;;;;;;10.23;6.55;;;;;;;;;;5014082;28;92868;-73
2022/03/20 01:28:55;;;;;;;6.40;5.70;;;;;;;;;;5013270;28;94140;-73
2022/03/20 01:31:22;;;;;;;7.13;6.18;;;;;;;;;;5012546;28;92878;-73
2022/03/20 01:33:48;;;;;;;8.82;5.55;;;;;;;;;;5013435;28;93660;-73
2022/03/20 01:36:15;;;;;;;9.20;6.93;;;;;;;;;;5012576;28;92490;-73
2022/03/20 01:38:41;;;;;;;8.52;6.63;;;;;;;;;;5012002;28;92980;-74
2022/03/20 01:41:07;;;;;;;10.05;6.80;;;;;;;;;;5016579;28;93149;-73
2022/03/20 01:43:34;;;;;;;6.22;5.63;;;;;;;;;;5011398;28;94925;-73
2022/03/20 01:46:02;;;;;;;5.18;4.75;;;;;;;;;;5011434;28;96430;-73
2022/03/20 01:48:28;;;;;;;7.05;5.47;;;;;;;;;;5013492;28;92451;-73
2022/03/20 01:50:55;;;;;;;6.43;5.80;;;;;;;;;;5013201;28;92581;-73
2022/03/20 01:53:21;;;;;;;10.20;6.38;;;;;;;;;;5013112;28;93113;-73
2022/03/20 01:55:50;;;;;;;8.75;6.50;;;;;;;;;;5013158;28;93888;-73
2022/03/20 01:58:17;;;;;;;7.47;5.82;;;;;;;;;;5013747;28;93050;-73
2022/03/20 02:00:44;;;;;;;9.43;6.53;;;;;;;;;;5012437;28;93915;-73
2022/03/20 02:03:10;;;;;;;5.82;5.32;;;;;;;;;;5015598;28;94385;-73
2022/03/20 02:05:37;;;;;;;6.10;4.50;;;;;;;;;;5012694;28;93096;-73
2022/03/20 02:08:04;;;;;;;9.45;5.78;;;;;;;;;;5010485;28;95556;-73
2022/03/20 02:10:35;;;;;;;14.27;6.88;;;;;;;;;;5013209;28;92620;-73
2022/03/20 02:13:03;;;;;;;6.53;4.93;;;;;;;;;;5011900;28;93908;-73
2022/03/20 02:15:30;;;;;;;7.47;5.65;;;;;;;;;;5012925;28;94192;-73
2022/03/20 02:17:57;;;;;;;10.02;5.47;;;;;;;;;;5013073;28;92444;-73
2022/03/20 02:20:24;;;;;;;7.60;5.55;;;;;;;;;;5012481;28;93741;-74
2022/03/20 02:22:50;;;;;;;4.65;4.00;;;;;;;;;;5013506;28;93699;-74
2022/03/20 02:25:17;;;;;;;6.20;4.85;;;;;;;;;;5015537;28;91755;-74
2022/03/20 02:27:44;;;;;;;10.00;5.80;;;;;;;;;;5013237;28;93790;-73
2022/03/20 02:30:16;;;;;;;8.98;5.07;;;;;;;;;;5012250;28;93270;-74
2022/03/20 02:32:47;;;;;;;5.68;4.40;;;;;;;;;;5011717;28;94847;-74
2022/03/20 02:35:15;;;;;;;6.93;5.38;;;;;;;;;;5011545;28;92534;-74
2022/03/20 02:37:43;;;;;;;11.02;6.28;;;;;;;;;;5013192;28;92828;-74
2022/03/20 02:40:10;;;;;;;8.75;4.15;;;;;;;;;;5011245;28;93907;-74
2022/03/20 02:42:38;;;;;;;7.22;5.60;;;;;;;;;;5012056;28;96247;-74
2022/03/20 02:45:06;;;;;;;6.32;5.75;;;;;;;;;;5015845;28;92525;-74
2022/03/20 02:47:37;;;;;;;5.57;5.03;;;;;;;;;;5012660;28;94217;-74
2022/03/20 02:50:05;;;;;;;9.18;6.03;;;;;;;;;;5012078;28;93712;-74
2022/03/20 02:52:43;;;;;;;6.57;4.95;;;;;;;;;;5012830;28;93237;-73
2022/03/20 02:55:10;;;;;;;5.80;5.18;;;;;;;;;;5011281;28;93379;-74
2022/03/20 02:57:37;;;;;;;6.53;4.82;;;;;;;;;;5010623;28;94847;-74
2022/03/20 03:00:05;;;;;;;11.45;7.22;;;;;;;;;;5011816;28;96320;-73
2022/03/20 03:02:34;;;;;;;6.78;5.53;;;;;;;;;;5010364;28;94230;-74
2022/03/20 03:05:02;;;;;;;4.95;4.50;;;;;;;;;;5012255;28;92812;-74
2022/03/20 03:07:32;;;;;;;8.23;6.70;;;;;;;;;;5014061;28;93739;-74
2022/03/20 03:12:50;;;;;;;7.37;5.80;;;;;;;;;;4998311;28;93990;-73
2022/03/20 03:15:21;;;;;;;7.82;6.15;;;;;;;;;;5019813;28;93366;-75
2022/03/20 03:17:49;;;;;;;7.78;6.72;;;;;;;;;;5018643;28;92441;-73
2022/03/20 03:20:17;;;;;;;13.77;6.07;;;;;;;;;;5018466;28;93733;-73
2022/03/20 03:22:43;;;;;;;7.35;5.85;;;;;;;;;;5016649;28;96547;-73
2022/03/20 03:25:10;;;;;;;11.60;6.97;;;;;;;;;;5018469;28;92521;-73
2022/03/20 03:27:36;;;;;;;11.90;8.10;;;;;;;;;;5018875;28;93500;-73
2022/03/20 03:30:04;;;;;;;6.80;6.18;;;;;;;;;;5021446;28;93465;-73
2022/03/20 03:32:30;;;;;;;10.23;7.10;;;;;;;;;;5017696;28;93719;-73
2022/03/20 03:37:42;;;;;;;9.40;6.63;;;;;;;;;;5017823;28;92370;-73
2022/03/20 03:40:09;;;;;;;12.32;7.40;;;;;;;;;;5019053;28;93843;-73
2022/03/20 03:42:36;;;;;;;13.23;7.72;;;;;;;;;;5018275;28;94119;-73
2022/03/20 03:45:03;;;;;;;11.80;7.25;;;;;;;;;;5018325;28;93021;-73
2022/03/20 03:47:29;;;;;;;13.43;7.15;;;;;;;;;;5016420;28;94895;-73
2022/03/20 03:49:56;;;;;;;11.15;6.75;;;;;;;;;;5018086;28;94531;-73
2022/03/20 03:52:22;;;;;;;8.48;7.60;;;;;;;;;;5020420;28;92868;-73
2022/03/20 03:54:49;;;;;;;8.43;6.80;;;;;;;;;;5018840;28;94188;-73
2022/03/20 03:57:18;;;;;;;10.57;8.25;;;;;;;;;;5017802;28;92512;-73
2022/03/20 03:59:44;;;;;;;11.02;6.70;;;;;;;;;;5017310;28;94043;-73
2022/03/20 04:02:10;;;;;;;8.25;7.43;;;;;;;;;;5017427;28;93853;-73
2022/03/20 04:04:38;;;;;;;11.07;8.20;;;;;;;;;;5019048;28;91734;-73
2022/03/20 04:07:04;;;;;;;10.00;7.45;;;;;;;;;;5016705;28;94293;-72
2022/03/20 04:09:31;;;;;;;8.18;7.38;;;;;;;;;;5017429;28;94442;-73
2022/03/20 04:11:57;;;;;;;8.65;7.65;;;;;;;;;;5014773;28;96458;-73
2022/03/20 04:14:24;;;;;;;10.50;8.48;;;;;;;;;;5019453;28;95706;-73
2022/03/20 04:16:54;;;;;;;13.48;9.63;;;;;;;;;;5017584;28;93875;-73
2022/03/20 04:19:20;;;;;;;15.13;9.88;;;;;;;;;;5017507;28;94043;-73
2022/03/20 04:21:48;;;;;;;11.10;7.13;;;;;;;;;;5016732;28;94543;-73
2022/03/20 04:24:14;;;;;;;11.85;9.07;;;;;;;;;;5016526;28;92497;-73
2022/03/20 04:26:41;;;;;;;7.82;6.95;;;;;;;;;;5013775;28;93983;-73
2022/03/20 04:29:07;;;;;;;13.00;8.48;;;;;;;;;;5014941;27;92594;-73
2022/03/20 04:31:33;;;;;;;13.30;8.23;;;;;;;;;;5015403;28;93101;-73
2022/03/20 04:34:00;;;;;;;13.40;9.13;;;;;;;;;;5016940;28;92900;-73
2022/03/20 04:36:27;;;;;;;15.40;8.85;;;;;;;;;;5013358;28;94918;-72
2022/03/20 04:38:55;;;;;;;11.00;9.18;;;;;;;;;;5014392;28;95457;-73
2022/03/20 04:41:21;;;;;;;12.13;8.15;;;;;;;;;;5013925;28;94240;-73
2022/03/20 04:43:49;;;;;;;12.85;9.50;;;;;;;;;;5014441;28;92404;-73
2022/03/20 04:46:17;;;;;;;11.75;9.27;;;;;;;;;;5014759;28;93983;-73
2022/03/20 04:59:44;;;;;;;10.65;8.80;;;;;;;;;;5013975;28;92597;-73
2022/03/20 05:02:11;;;;;;;11.40;9.13;;;;;;;;;;5011618;28;96609;-73
2022/03/20 05:04:38;;;;;;;16.52;8.73;;;;;;;;;;5014117;28;92522;-73
2022/03/20 05:07:05;;;;;;;14.35;10.02;;;;;;;;;;5014414;28;93958;-73
2022/03/20 05:15:06;;;;;;;14.35;10.15;;;;;;;;;;5013309;28;94679;-73
2022/03/20 05:17:32;;;;;;;16.67;10.50;;;;;;;;;;5012988;28;93413;-73
2022/03/20 05:19:59;;;;;;;15.10;9.52;;;;;;;;;;5016735;28;91815;-73
2022/03/20 05:22:25;;;;;;;16.30;11.20;;;;;;;;;;5013961;28;94258;-72
2022/03/20 05:24:52;;;;;;;14.25;10.10;;;;;;;;;;5012146;28;92450;-72
2022/03/20 05:27:18;;;;;;;16.42;9.80;;;;;;;;;;5011691;28;94856;-73
2022/03/20 05:29:44;;;;;;;18.88;10.82;;;;;;;;;;5013017;28;95094;-73
2022/03/20 05:32:11;;;;;;;20.33;9.25;;;;;;;;;;5013358;28;92538;-73
2022/03/20 05:34:37;;;;;;;16.63;11.52;;;;;;;;;;5013971;28;94468;-73
2022/03/20 05:37:04;;;;;;;18.85;10.60;;;;;;;;;;5012666;28;94165;-73
2022/03/20 05:39:31;;;;;;;13.43;10.05;;;;;;;;;;5012482;28;92537;-73
2022/03/20 05:41:58;;;;;;;17.85;9.93;;;;;;;;;;5016047;28;93021;-73
2022/03/20 05:44:26;;;;;;;15.25;8.82;;;;;;;;;;5012647;28;93291;-73
2022/03/20 05:46:54;;;;;;;14.13;9.75;;;;;;;;;;5013347;28;92477;-73
2022/03/20 05:49:21;;;;;;;15.30;11.23;;;;;;;;;;5012589;28;94385;-73
2022/03/20 05:51:49;;;;;;;18.00;11.18;;;;;;;;;;5010412;28;95372;-73
2022/03/20 05:54:15;;;;;;;14.38;11.02;;;;;;;;;;5012146;28;96348;-73
2022/03/20 05:59:27;;;;;;;14.35;10.63;;;;;;;;;;5011365;28;92472;-73
2022/03/20 06:01:54;;;;;;;14.77;10.05;;;;;;;;;;5012243;28;92501;-73
2022/03/20 06:04:22;;;;;;;14.90;11.02;;;;;;;;;;5015755;28;94124;-73
2022/03/20 06:06:48;;;;;;;17.55;10.55;;;;;;;;;;5010143;28;94240;-73
2022/03/20 06:09:15;;;;;;;10.95;9.43;;;;;;;;;;5012426;28;94030;-73
2022/03/20 06:11:42;;;;;;;14.80;11.15;;;;;;;;;;5012686;28;93730;-73
2022/03/20 06:14:08;;;;;;;17.15;10.48;;;;;;;;;;5012258;28;93120;-73
2022/03/20 06:16:36;;;;;;;26.17;11.23;;;;;;;;;;5009250;28;96589;-73
2022/03/20 06:19:03;;;;;;;13.75;11.63;;;;;;;;;;5011030;28;92749;-73
2022/03/20 06:21:29;;;;;;;14.40;9.85;;;;;;;;;;5012320;28;94077;-73
2022/03/20 06:23:55;;;;;;;10.60;8.10;;;;;;;;;;5011742;28;93440;-73
2022/03/20 06:26:23;;;;;;;15.00;9.25;;;;;;;;;;5015657;28;92435;-73
2022/03/20 06:28:50;;;;;;;19.08;11.00;;;;;;;;;;5012509;28;94224;-73
2022/03/20 06:31:16;;;;;;;25.13;12.52;;;;;;;;;;5012403;28;92647;-73
2022/03/20 06:33:55;;;;;;;13.48;10.43;;;;;;;;;;5011483;28;92957;-73
2022/03/20 06:36:22;;;;;;;12.02;10.13;;;;;;;;;;5012222;28;94565;-73
2022/03/20 06:38:48;;;;;;;13.70;11.05;;;;;;;;;;5012107;28;93049;-73
2022/03/20 06:41:15;;;;;;;19.13;11.00;;;;;;;;;;5009551;28;94810;-73
2022/03/20 06:43:41;;;;;;;11.02;9.32;;;;;;;;;;5011275;28;94541;-73
2022/03/20 06:46:07;;;;;;;19.77;11.35;;;;;;;;;;5016194;28;92498;-73
2022/03/20 06:48:50;;;;;;;;;;;;;;;;;;5010456;28;94062;-73
2022/03/20 06:51:17;;;;;;;15.30;11.10;;;;;;;;;;5012963;28;120758;-73
2022/03/20 06:53:43;;;;;;;16.40;11.13;;;;;;;;;;5011475;28;93359;-73
2022/03/20 06:56:10;;;;;;;16.20;10.25;;;;;;;;;;5011103;28;93579;-73
2022/03/20 06:58:36;;;;;;;16.63;10.85;;;;;;;;;;5011949;28;93349;-73
2022/03/20 07:01:02;;;;;;;17.33;11.38;;;;;;;;;;5012206;28;93723;-73
2022/03/20 07:03:29;;;;;;;17.45;10.68;;;;;;;;;;5010502;28;94347;-73
2022/03/20 07:05:55;;;;;;;15.23;11.48;;;;;;;;;;5010125;28;94867;-73
2022/03/20 07:08:22;;;;;;;16.15;11.88;;;;;;;;;;5013222;28;96364;-73
2022/03/20 07:10:49;;;;;;;19.23;12.10;;;;;;;;;;5010010;28;93922;-73
2022/03/20 07:16:01;;;;;;;16.92;12.20;;;;;;;;;;5011325;28;93207;-73
2022/03/20 07:18:27;;;;;;;12.00;9.70;;;;;;;;;;5010808;28;92427;-73
2022/03/20 07:20:55;;;;;;;17.70;10.70;;;;;;;;;;5012159;28;93624;-73
2022/03/20 07:23:22;;;;;;;14.98;11.20;;;;;;;;;;5010080;28;93640;-73
2022/03/20 07:31:18;;;;;;;16.45;12.45;;;;;;;;;;5011689;28;96233;-73
2022/03/20 07:33:47;;;;;;;21.95;12.48;;;;;;;;;;5010828;28;95271;-75
2022/03/20 07:36:14;;;;;;;11.20;9.98;;;;;;;;;;5006725;28;94971;-74
2022/03/20 07:38:40;;;;;;;15.10;11.65;;;;;;;;;;5008073;28;92485;-73
2022/03/20 07:41:07;;;;;;;19.38;12.98;;;;;;;;;;5011531;28;93146;-73
2022/03/20 07:43:33;;;;;;;18.83;11.43;;;;;;;;;;5004775;28;93844;-73
2022/03/20 07:46:00;;;;;;;17.45;13.32;;;;;;;;;;5006301;28;94978;-73
2022/03/20 07:48:26;;;;;;;19.25;11.57;;;;;;;;;;5006927;28;94054;-72
2022/03/20 07:50:53;;;;;;;14.27;9.30;;;;;;;;;;5008252;28;94242;-72
2022/03/20 07:53:19;;;;;;;19.95;10.65;;;;;;;;;;5004356;28;93022;-72
2022/03/20 07:55:46;;;;;;;17.23;13.02;;;;;;;;;;5004317;28;96914;-72
2022/03/20 07:58:19;;;;;;;15.15;9.45;;;;;;;;;;4991072;28;92723;-73
2022/03/20 08:00:46;;;;;;;15.27;11.95;;;;;;;;;;5006479;28;94389;-73
2022/03/20 08:03:13;;;;;;;14.25;11.95;;;;;;;;;;5009145;28;94059;-72
2022/03/20 08:05:39;;;;;;;19.80;12.80;;;;;;;;;;5007401;27;93015;-72
2022/03/20 08:08:07;;;;;;;17.33;11.82;;;;;;;;;;5015033;28;92974;-73
2022/03/20 08:10:34;;;;;;;11.13;9.98;;;;;;;;;;5014540;28;93190;-73
2022/03/20 08:13:00;;;;;;;15.00;10.70;;;;;;;;;;5012654;28;91760;-72
2022/03/20 08:15:27;;;;;;;20.67;13.40;;;;;;;;;;5011372;28;92516;-72
2022/03/20 08:17:55;;;;;;;19.95;12.82;;;;;;;;;;5010560;28;92477;-72
2022/03/20 08:20:22;;;;;;;15.55;11.75;;;;;;;;;;5016637;28;94896;-72
2022/03/20 08:22:48;;;;;;;19.42;13.85;;;;;;;;;;4995332;28;94437;-72
2022/03/20 08:25:15;;;;;;;15.30;10.15;;;;;;;;;;5014147;28;92421;-73
2022/03/20 08:27:47;;;;;;;23.80;13.73;;;;;;;;;;5013805;28;93863;-73
2022/03/20 08:30:15;;;;;;;13.68;10.15;;;;;;;;;;5012294;28;93389;-72
2022/03/20 08:32:42;;;;;;;20.20;13.18;;;;;;;;;;5013411;28;93232;-72
2022/03/20 08:35:13;;;;;;;16.45;12.90;;;;;;;;;;5014753;28;92982;-72
2022/03/20 08:37:41;;;;;;;20.90;14.80;;;;;;;;;;5016707;28;94170;-72
2022/03/20 08:40:13;;;;;;;16.63;11.20;;;;;;;;;;5011949;28;93244;-72
2022/03/20 08:42:39;;;;;;;19.58;13.40;;;;;;;;;;5013563;28;94205;-72
2022/03/20 08:45:05;;;;;;;12.75;10.38;;;;;;;;;;5009314;28;95801;-72
2022/03/20 08:47:35;;;;;;;14.07;11.70;;;;;;;;;;5023644;27;95309;-72
2022/03/20 08:50:02;;;;;;;18.83;13.57;;;;;;;;;;5014305;27;93585;-71
2022/03/20 08:52:28;;;;;;;19.20;13.90;;;;;;;;;;5002299;27;93120;-72
2022/03/20 08:54:54;;;;;;;18.02;12.70;;;;;;;;;;4993830;28;93970;-72
2022/03/20 08:57:21;;;;;;;19.10;13.68;;;;;;;;;;5011236;28;94345;-71
2022/03/20 08:59:49;;;;;;;14.85;12.13;;;;;;;;;;5011726;28;93952;-72
2022/03/20 09:02:16;;;;;;;21.48;14.13;;;;;;;;;;5013092;28;93531;-71
2022/03/20 09:04:42;;;;;;;21.52;14.43;;;;;;;;;;5013763;28;92532;-71
2022/03/20 09:07:08;;;;;;;22.33;17.35;;;;;;;;;;5013644;28;93948;-71
2022/03/20 09:09:36;;;;;;;14.25;11.23;;;;;;;;;;5011214;28;96327;-71
2022/03/20 09:12:02;;;;;;;26.75;13.73;;;;;;;;;;5013598;28;92569;-72
2022/03/20 09:14:29;;;;;;;19.52;15.38;;;;;;;;;;5013669;28;93999;-72
2022/03/20 09:19:40;;;;;;;20.75;13.68;;;;;;;;;;5017079;28;92968;-71
2022/03/20 09:22:06;;;;;;;15.60;12.65;;;;;;;;;;5012796;28;94372;-72
2022/03/20 09:24:33;;;;;;;18.23;9.68;;;;;;;;;;5013688;28;92457;-72
2022/03/20 09:27:00;;;;;;;20.70;14.15;;;;;;;;;;5015131;28;93132;-72
2022/03/20 09:29:26;;;;;;;19.50;13.55;;;;;;;;;;5012597;28;94010;-71
2022/03/20 09:31:53;;;;;;;21.95;14.27;;;;;;;;;;5011418;28;92534;-71
2022/03/20 09:34:19;;;;;;;25.17;12.85;;;;;;;;;;5011644;28;94863;-72
2022/03/20 09:36:45;;;;;;;17.48;14.40;;;;;;;;;;5012787;28;93564;-72
2022/03/20 09:39:12;;;;;;;27.15;14.95;;;;;;;;;;5013351;28;92626;-72
2022/03/20 09:41:39;;;;;;;22.45;17.20;;;;;;;;;;5015105;28;92989;-72
2022/03/20 09:44:05;;;;;;;27.17;17.67;;;;;;;;;;5012531;28;92473;-71
2022/03/20 09:46:32;;;;;;;27.33;17.27;;;;;;;;;;5013229;28;92534;-71
2022/03/20 09:49:00;;;;;;;29.48;15.77;;;;;;;;;;5013120;28;94273;-71
2022/03/20 09:51:27;;;;;;;31.25;19.27;;;;;;;;;;5012519;28;91751;-71
2022/03/20 09:53:53;;;;;;;32.58;19.65;;;;;;;;;;5013376;28;92591;-71
2022/03/20 09:56:19;;;;;;;32.92;20.60;;;;;;;;;;5011102;28;94032;-72
2022/03/20 09:58:46;;;;;;;29.77;17.77;;;;;;;;;;5010623;28;95158;-72
2022/03/20 10:01:13;;;;;;;25.58;18.67;;;;;;;;;;5012552;28;96293;-72
2022/03/20 10:03:40;;;;;;;27.02;17.10;;;;;;;;;;5016108;28;94266;-72
2022/03/20 10:06:09;;;;;;;24.75;17.85;;;;;;;;;;5011978;28;93657;-71
2022/03/20 10:08:36;;;;;;;28.35;16.17;;;;;;;;;;5012519;28;94079;-71
2022/03/20 10:11:12;;;;;;;25.05;16.88;;;;;;;;;;5011973;28;93092;-72
2022/03/20 10:13:39;;;;;;;22.63;16.10;;;;;;;;;;5012770;28;93784;-72
2022/03/20 10:16:18;;;;;;;21.42;17.42;;;;;;;;;;5013371;28;92832;-72
2022/03/20 10:18:44;;;;;;;23.75;16.50;;;;;;;;;;5012414;28;92523;-72
2022/03/20 10:21:12;;;;;;;23.23;16.50;;;;;;;;;;5013158;28;93031;-72
2022/03/20 10:23:41;;;;;;;17.88;14.85;;;;;;;;;;5010247;28;96074;-72
2022/03/20 10:26:15;;;;;;;24.45;17.95;;;;;;;;;;5015540;28;92843;-72
2022/03/20 10:28:48;;;;;;;30.08;16.02;;;;;;;;;;5013207;28;93453;-72
2022/03/20 10:31:17;;;;;;;21.60;16.83;;;;;;;;;;5012272;28;92484;-72
2022/03/20 10:33:58;;;;;;;24.30;16.98;;;;;;;;;;5011871;28;93050;-72
2022/03/20 10:36:24;;;;;;;26.77;17.20;;;;;;;;;;5011857;28;93600;-72
2022/03/20 10:38:50;;;;;;;23.10;16.98;;;;;;;;;;5012772;28;92491;-72
2022/03/20 10:41:25;;;;;;;35.90;16.92;;;;;;;;;;5011965;28;93172;-72
2022/03/20 10:43:52;;;;;;;27.27;18.42;;;;;;;;;;5012244;28;93303;-72
2022/03/20 10:46:20;;;;;;;25.20;17.25;;;;;;;;;;5011741;28;92459;-72
2022/03/20 10:48:48;;;;;;;25.35;17.27;;;;;;;;;;5013829;28;94811;-72
2022/03/20 10:51:24;;;;;;;21.08;17.27;;;;;;;;;;5012056;28;92443;-72
2022/03/20 10:53:55;;;;;;;22.00;17.10;;;;;;;;;;5011682;28;93847;-72
2022/03/20 10:56:21;;;;;;;23.38;18.08;;;;;;;;;;5010173;28;94549;-72
2022/03/20 10:58:48;;;;;;;19.05;14.63;;;;;;;;;;5012157;28;92489;-73
2022/03/20 11:01:35;;;;;;;24.88;17.00;;;;;;;;;;5011356;28;93107;-72
2022/03/20 11:04:03;;;;;;;30.65;18.63;;;;;;;;;;5012114;28;94549;-72
2022/03/20 11:06:30;;;;;;;23.42;17.70;;;;;;;;;;5012211;27;91772;-72
2022/03/20 11:08:56;;;;;;;24.48;17.23;;;;;;;;;;5012505;28;92827;-72
2022/03/20 11:11:27;;;;;;;32.60;19.88;;;;;;;;;;5011265;28;92516;-72
2022/03/20 11:13:54;;;;;;;22.52;17.77;;;;;;;;;;5010565;28;94848;-71
2022/03/20 11:16:23;;;;;;;22.98;17.75;;;;;;;;;;5011032;28;93790;-72
2022/03/20 11:18:51;;;;;;;26.92;18.52;;;;;;;;;;5012268;28;92458;-72
2022/03/20 11:21:20;;;;;;;25.08;19.85;;;;;;;;;;5011562;28;94062;-72
2022/03/20 11:23:46;;;;;;;26.98;18.77;;;;;;;;;;5011330;28;93913;-72
2022/03/20 11:26:13;;;;;;;23.05;19.23;;;;;;;;;;5011673;28;92435;-72
2022/03/20 11:28:45;;;;;;;25.70;19.20;;;;;;;;;;5009366;28;95653;-72
2022/03/20 11:31:13;;;;;;;26.00;18.63;;;;;;;;;;5015608;27;92418;-72
2022/03/20 11:33:42;;;;;;;22.08;16.15;;;;;;;;;;5012600;28;95360;-73
2022/03/20 11:36:14;;;;;;;20.00;16.88;;;;;;;;;;5014178;28;93471;-72
2022/03/20 11:38:41;;;;;;;28.27;22.17;;;;;;;;;;5012394;28;94908;-72
2022/03/20 11:41:12;;;;;;;29.60;22.02;;;;;;;;;;4998293;28;96423;-72
2022/03/20 11:43:44;;;;;;;27.80;22.48;;;;;;;;;;5004719;28;93147;-72
2022/03/20 11:46:28;;;;;;;32.97;21.88;;;;;;;;;;5015071;28;92462;-72
2022/03/20 11:49:13;;;;;;;27.95;21.58;;;;;;;;;;5014702;28;92961;-72
2022/03/20 11:51:56;;;;;;;27.92;21.50;;;;;;;;;;5014319;28;94299;-72
2022/03/20 11:54:30;;;;;;;28.40;22.92;;;;;;;;;;5017982;28;92443;-72
2022/03/20 11:56:58;;;;;;;29.17;22.05;;;;;;;;;;5014746;28;92995;-72
2022/03/20 11:59:43;;;;;;;26.75;20.60;;;;;;;;;;5002857;28;92922;-72
2022/03/20 12:02:12;;;;;;;33.83;23.55;;;;;;;;;;5010493;28;94284;-72
2022/03/20 12:04:45;;;;;;;29.50;21.50;;;;;;;;;;5012071;28;96878;-72
2022/03/20 12:07:16;;;;;;;28.42;22.02;;;;;;;;;;5014299;28;92456;-72
2022/03/20 12:10:14;;;;;;;26.48;20.20;;;;;;;;;;5018294;28;93991;-72
2022/03/20 12:13:04;;;;;;;25.65;20.50;;;;;;;;;;5021719;27;94251;-72
2022/03/20 12:15:31;;;;;;;28.60;21.63;;;;;;;;;;5021202;28;92626;-72
2022/03/20 12:18:08;;;;;;;30.17;23.02;;;;;;;;;;4997164;28;93357;-72
2022/03/20 12:21:01;;;;;;;26.08;21.23;;;;;;;;;;4994931;28;92447;-72
2022/03/20 12:23:39;;;;;;;32.53;23.08;;;;;;;;;;4994992;28;94011;-71
2022/03/20 12:26:24;;;;;;;26.85;23.25;;;;;;;;;;5000707;28;93196;-72
2022/03/20 12:28:51;;;;;;;30.80;24.08;;;;;;;;;;5014607;28;92456;-71
2022/03/20 12:31:28;;;;;;;31.58;22.40;;;;;;;;;;5012812;28;94924;-72
2022/03/20 12:34:13;;;;;;;39.88;23.58;;;;;;;;;;5013030;28;94266;-72
2022/03/20 12:36:40;;;;;;;30.15;23.77;;;;;;;;;;5014343;28;92522;-72
2022/03/20 12:39:09;;;;;;;27.48;21.35;;;;;;;;;;5016565;28;93310;-73
2022/03/20 12:41:36;;;;;;;23.38;15.40;;;;;;;;;;5037209;27;93810;-72
2022/03/20 12:44:07;;;;;;;29.48;23.52;;;;;;;;;;5034356;27;92552;-73
2022/03/20 12:46:41;;;;;;;30.65;22.55;;;;;;;;;;5032979;27;93766;-72
2022/03/20 12:49:15;;;;;;;28.95;22.88;;;;;;;;;;5031892;27;91720;-72
2022/03/20 12:51:42;;;;;;;27.70;23.15;;;;;;;;;;5014742;28;92557;-72
2022/03/20 12:54:15;;;;;;;27.63;23.67;;;;;;;;;;5012554;28;93773;-71
2022/03/20 12:56:51;;;;;;;31.67;22.70;;;;;;;;;;5012446;28;94874;-72
2022/03/20 12:59:18;;;;;;;26.33;22.17;;;;;;;;;;5013517;28;96282;-72
2022/03/20 13:01:45;;;;;;;29.20;22.67;;;;;;;;;;5012647;28;94046;-71
2022/03/20 13:04:19;;;;;;;35.75;24.88;;;;;;;;;;5016601;28;92888;-72
2022/03/20 13:06:46;;;;;;;30.75;23.05;;;;;;;;;;5007133;28;94570;-71
2022/03/20 13:09:13;;;;;;;29.95;23.75;;;;;;;;;;5005924;28;92867;-72
2022/03/20 13:11:52;;;;;;;33.67;21.50;;;;;;;;;;5028560;28;93991;-72
2022/03/20 13:14:21;;;;;;;30.88;22.83;;;;;;;;;;5026313;27;93229;-72
2022/03/20 13:16:51;;;;;;;28.38;24.13;;;;;;;;;;5013802;28;92583;-72
2022/03/20 13:19:29;;;;;;;28.35;23.40;;;;;;;;;;5013566;28;94352;-71
2022/03/20 13:21:56;;;;;;;30.92;25.17;;;;;;;;;;5011883;28;96697;-72
2022/03/20 13:24:29;;;;;;;29.05;21.85;;;;;;;;;;5018534;28;92513;-72
2022/03/20 13:26:57;;;;;;;33.88;26.38;;;;;;;;;;5013362;28;94029;-72
2022/03/20 13:29:23;;;;;;;30.75;24.27;;;;;;;;;;5012736;28;92439;-72
2022/03/20 13:32:06;;;;;;;33.45;23.48;;;;;;;;;;5007733;28;94175;-71
2022/03/20 13:34:39;;;;;;;28.98;22.73;;;;;;;;;;5004748;28;94857;-72
2022/03/20 13:37:06;;;;;;;;;;;;;;;;;;5006939;28;93035;-72
2022/03/20 13:39:33;;;;;;;33.38;22.60;;;;;;;;;;5009347;28;121495;-73
2022/03/20 13:41:59;;;;;;;32.70;24.88;;;;;;;;;;5008786;28;93162;-73
2022/03/20 13:44:37;;;;;;;31.20;24.77;;;;;;;;;;5009679;28;92547;-72
2022/03/20 13:47:04;;;;;;;31.60;24.40;;;;;;;;;;5014727;28;94986;-72
2022/03/20 13:49:31;;;;;;;33.17;25.17;;;;;;;;;;5009354;28;92615;-72
2022/03/20 13:51:57;;;;;;;30.90;23.52;;;;;;;;;;5012164;27;93486;-73
2022/03/20 13:54:23;;;;;;;29.38;23.58;;;;;;;;;;5014968;28;94595;-73
2022/03/20 13:57:06;;;;;;;27.55;21.58;;;;;;;;;;5011515;27;92923;-73
2022/03/20 13:59:46;;;;;;;31.50;23.77;;;;;;;;;;5006142;28;94259;-73
2022/03/20 14:02:12;;;;;;;26.33;20.35;;;;;;;;;;5012437;28;94130;-73
2022/03/20 14:04:39;;;;;;;31.25;23.30;;;;;;;;;;5011111;28;93166;-73
2022/03/20 14:07:17;;;;;;;32.00;25.20;;;;;;;;;;5011580;28;92618;-73
2022/03/20 14:09:43;;;;;;;29.88;23.33;;;;;;;;;;5014654;28;94754;-73
2022/03/20 14:12:28;;;;;;;28.27;21.40;;;;;;;;;;5009018;28;95179;-74
2022/03/20 14:15:08;;;;;;;26.35;21.60;;;;;;;;;;5007971;28;94486;-73
2022/03/20 14:17:39;;;;;;;28.80;20.40;;;;;;;;;;5010538;28;93042;-73
2022/03/20 14:20:08;;;;;;;25.55;20.88;;;;;;;;;;5012119;28;94100;-75
2022/03/20 14:23:04;;;;;;;25.55;18.80;;;;;;;;;;5010783;28;93803;-73
2022/03/20 14:25:44;;;;;;;24.30;17.60;;;;;;;;;;5004041;28;94350;-72
2022/03/20 14:28:10;;;;;;;26.30;19.58;;;;;;;;;;5010605;28;93883;-73
2022/03/20 14:42:16;;;;;;;21.70;15.10;;;;;;;;;;5011737;28;95571;-71
2022/03/20 14:44:47;;;;;;;22.65;14.98;;;;;;;;;;5006526;28;95748;-73
2022/03/20 14:47:16;;;;;;;16.25;13.63;;;;;;;;;;5010023;28;92825;-73
2022/03/20 14:49:43;;;;;;;14.93;13.05;;;;;;;;;;5008935;28;94287;-73
2022/03/20 14:52:09;;;;;;;17.80;13.98;;;;;;;;;;5011085;28;93722;-73
2022/03/20 14:54:36;;;;;;;17.92;13.88;;;;;;;;;;5011378;28;92642;-73
2022/03/20 14:57:04;;;;;;;17.55;13.15;;;;;;;;;;5014974;28;94026;-73
2022/03/20 14:59:31;;;;;;;18.70;13.50;;;;;;;;;;5008918;27;93125;-73
2022/03/20 15:01:57;;;;;;;18.35;15.45;;;;;;;;;;5010199;28;93052;-73
2022/03/20 15:04:24;;;;;;;19.33;16.15;;;;;;;;;;5009453;28;96543;-73
2022/03/20 15:06:52;;;;;;;22.98;16.75;;;;;;;;;;5008847;28;94916;-73
2022/03/20 15:12:04;;;;;;;22.50;17.33;;;;;;;;;;5012270;27;94080;-72
2022/03/20 15:14:31;;;;;;;24.50;19.45;;;;;;;;;;5010679;28;92891;-72
2022/03/20 15:16:58;;;;;;;26.73;21.90;;;;;;;;;;5014134;28;94030;-72
2022/03/20 15:19:24;;;;;;;29.23;22.80;;;;;;;;;;5013197;28;92529;-72
2022/03/20 15:21:51;;;;;;;27.15;21.00;;;;;;;;;;5011388;28;93330;-73
2022/03/20 15:24:18;;;;;;;30.75;24.27;;;;;;;;;;4998665;28;93463;-73